KPWM/PWM METAR and TAF weather

Enter ICAO airport designator
Station Type Date Time Source
KPWM METAR 2022/01/19 19:51 UTC NOAA

KPWM 191951Z VRB06KT 10SM FEW060 BKN095 04/M04 A2985 RMK AO2 SLP108 T00391039


Station Type Date Time Source
KPWM Decoded METAR 2022/01/19 19:51 UTC NOAA

PORTLAND INTERNATIONAL JETPORT, ME, United States (KPWM) 43-39N 70-18W 15M
Jan 19, 2022 - 02:51 PM EST / 2022.01.19 1951 UTC
Wind: Variable at 7 MPH (6 KT):0
Visibility: 10 mile(s):0
Sky conditions: mostly cloudy
Temperature: 39.0 F (3.9 C)
Dew Point: 25.0 F (-3.9 C)
Relative Humidity: 56%
Pressure (altimeter): 29.85 in. Hg (1010 hPa)
ob: KPWM 191951Z VRB06KT 10SM FEW060 BKN095 04/M04 A2985 RMK AO2 SLP108 T00391039
cycle: 20

Station Type Date Time Source
KPWM TAF 2022/01/19 18:22 UTC NOAA

TAF KPWM 191720Z 1918/2018 20012KT P6SM SCT050 OVC080
FM192200 21010G20KT P6SM BKN150 WS020/22035KT
FM200700 25008KT P6SM OVC080
FM201300 29008KT P6SM BKN080

Example: see airport list